AFR91UH LFPG-LFLL
Flight info
| Callsign | AFR91UH |
|---|---|
| Flight time | 0h 42m |
| Altitude | 27000 |
| Route | OKASI DCT OKEKO DCT OKEPI DCT MOU A3 FEDZI |
| Aircraft | A320/M-SDE3FGHIRWY/LB1 |
Departure
| Time | 2026-05-08 11:11 |
|---|---|
| Airport | Charles de Gaulle International Airport (LFPG) |
Arrival
| Time | 2026-05-08 11:53 |
|---|---|
| Airport | Lyon Saint-Exupéry Airport (LFLL) |
| Time | Latitude | Longitude | Altitude | Speed | Heading |
|---|---|---|---|---|---|
| 2026-05-08 10:47 | 49.00736 | 2.57914 | 361 ft | 0 kts | 183° |
| 2026-05-08 11:00 | 49.00751 | 2.57915 | 364 ft | 2 kts | 183° |
| 2026-05-08 11:00 | 49.00767 | 2.57916 | 361 ft | 2 kts | 195° |
| 2026-05-08 11:01 | 49.00782 | 2.57926 | 357 ft | 2 kts | 236° |
| 2026-05-08 11:01 | 49.00787 | 2.57946 | 361 ft | 0 kts | 264° |
| 2026-05-08 11:04 | 49.00787 | 2.57918 | 359 ft | 6 kts | 270° |
| 2026-05-08 11:04 | 49.00796 | 2.57813 | 359 ft | 12 kts | 278° |
| 2026-05-08 11:04 | 49.00850 | 2.57731 | 356 ft | 13 kts | 344° |
| 2026-05-08 11:04 | 49.00882 | 2.57619 | 354 ft | 13 kts | 264° |
| 2026-05-08 11:05 | 49.00873 | 2.57472 | 357 ft | 14 kts | 266° |
| 2026-05-08 11:05 | 49.00866 | 2.57326 | 362 ft | 13 kts | 265° |
| 2026-05-08 11:05 | 49.00858 | 2.57191 | 356 ft | 12 kts | 264° |
| 2026-05-08 11:05 | 49.00851 | 2.57067 | 362 ft | 11 kts | 265° |
| 2026-05-08 11:06 | 49.00845 | 2.56953 | 354 ft | 10 kts | 265° |
| 2026-05-08 11:06 | 49.00839 | 2.56839 | 354 ft | 15 kts | 265° |
| 2026-05-08 11:06 | 49.00829 | 2.56640 | 354 ft | 20 kts | 268° |
| 2026-05-08 11:06 | 49.00814 | 2.56418 | 356 ft | 23 kts | 260° |
| 2026-05-08 11:07 | 49.00788 | 2.56166 | 354 ft | 26 kts | 262° |
| 2026-05-08 11:07 | 49.00763 | 2.55884 | 359 ft | 28 kts | 263° |
| 2026-05-08 11:07 | 49.00742 | 2.55630 | 358 ft | 25 kts | 263° |
| 2026-05-08 11:07 | 49.00723 | 2.55414 | 359 ft | 16 kts | 259° |
| 2026-05-08 11:08 | 49.00668 | 2.55257 | 357 ft | 18 kts | 202° |
| 2026-05-08 11:08 | 49.00536 | 2.55292 | 361 ft | 21 kts | 164° |
| 2026-05-08 11:08 | 49.00398 | 2.55351 | 358 ft | 13 kts | 164° |
| 2026-05-08 11:08 | 49.00299 | 2.55394 | 360 ft | 16 kts | 164° |
| 2026-05-08 11:09 | 49.00178 | 2.55447 | 354 ft | 19 kts | 163° |
| 2026-05-08 11:09 | 49.00061 | 2.55496 | 361 ft | 19 kts | 165° |
| 2026-05-08 11:09 | 48.99926 | 2.55560 | 356 ft | 22 kts | 152° |
| 2026-05-08 11:09 | 48.99826 | 2.55735 | 358 ft | 19 kts | 130° |
| 2026-05-08 11:10 | 48.99731 | 2.55808 | 355 ft | 13 kts | 173° |
| 2026-05-08 11:10 | 48.99635 | 2.55824 | 356 ft | 12 kts | 173° |
| 2026-05-08 11:10 | 48.99603 | 2.55844 | 358 ft | 4 kts | 113° |
| 2026-05-08 11:10 | 48.99610 | 2.56047 | 354 ft | 49 kts | 84° |
| 2026-05-08 11:11 | 48.99657 | 2.56927 | 360 ft | 115 kts | 85° |
| 2026-05-08 11:11 | 48.99734 | 2.58403 | 406 ft | 159 kts | 85° |
| 2026-05-08 11:11 | 48.99820 | 2.60066 | 1135 ft | 156 kts | 85° |
| 2026-05-08 11:11 | 48.99909 | 2.61714 | 1904 ft | 156 kts | 85° |
| 2026-05-08 11:12 | 48.99998 | 2.63354 | 2597 ft | 155 kts | 85° |
| 2026-05-08 11:12 | 49.00085 | 2.64990 | 3250 ft | 155 kts | 85° |
| 2026-05-08 11:12 | 49.00171 | 2.66646 | 3751 ft | 164 kts | 85° |
| 2026-05-08 11:12 | 49.00268 | 2.68498 | 4034 ft | 186 kts | 85° |
| 2026-05-08 11:13 | 49.00378 | 2.70586 | 4324 ft | 210 kts | 85° |
| 2026-05-08 11:13 | 49.00498 | 2.72897 | 4670 ft | 234 kts | 85° |
| 2026-05-08 11:13 | 49.00634 | 2.75490 | 5084 ft | 257 kts | 85° |
| 2026-05-08 11:13 | 49.00713 | 2.78265 | 5792 ft | 267 kts | 95° |
| 2026-05-08 11:14 | 49.00301 | 2.81037 | 6600 ft | 272 kts | 115° |
| 2026-05-08 11:14 | 48.99200 | 2.83367 | 7371 ft | 277 kts | 140° |
| 2026-05-08 11:14 | 48.97509 | 2.84775 | 8181 ft | 279 kts | 167° |
| 2026-05-08 11:14 | 48.95579 | 2.84918 | 9012 ft | 280 kts | 191° |
| 2026-05-08 11:15 | 48.93666 | 2.84308 | 9873 ft | 282 kts | 194° |
| 2026-05-08 11:15 | 48.91748 | 2.83657 | 10449 ft | 295 kts | 194° |
| 2026-05-08 11:15 | 48.89672 | 2.82941 | 10774 ft | 315 kts | 194° |
| 2026-05-08 11:15 | 48.87510 | 2.82202 | 11428 ft | 321 kts | 194° |
| 2026-05-08 11:16 | 48.85313 | 2.81460 | 12192 ft | 325 kts | 193° |
| 2026-05-08 11:16 | 48.83096 | 2.80717 | 12974 ft | 328 kts | 193° |
| 2026-05-08 11:16 | 48.80856 | 2.79973 | 13749 ft | 331 kts | 193° |
| 2026-05-08 11:16 | 48.78620 | 2.79233 | 14425 ft | 334 kts | 193° |
| 2026-05-08 11:17 | 48.76339 | 2.78478 | 15080 ft | 337 kts | 193° |
| 2026-05-08 11:17 | 48.74039 | 2.77716 | 15753 ft | 340 kts | 193° |
| 2026-05-08 11:17 | 48.71718 | 2.76948 | 16413 ft | 343 kts | 193° |
| 2026-05-08 11:17 | 48.69378 | 2.76172 | 17062 ft | 346 kts | 194° |
| 2026-05-08 11:18 | 48.67017 | 2.75390 | 17712 ft | 349 kts | 194° |
| 2026-05-08 11:18 | 48.64637 | 2.74602 | 18351 ft | 352 kts | 194° |
| 2026-05-08 11:18 | 48.62233 | 2.73805 | 18908 ft | 355 kts | 194° |
| 2026-05-08 11:18 | 48.59812 | 2.73004 | 19464 ft | 358 kts | 194° |
| 2026-05-08 11:19 | 48.57369 | 2.72195 | 20021 ft | 360 kts | 194° |
| 2026-05-08 11:19 | 48.54943 | 2.71394 | 20571 ft | 363 kts | 194° |
| 2026-05-08 11:19 | 48.52463 | 2.70580 | 21121 ft | 366 kts | 194° |
| 2026-05-08 11:19 | 48.49961 | 2.69763 | 21654 ft | 369 kts | 194° |
| 2026-05-08 11:20 | 48.47445 | 2.68939 | 22199 ft | 372 kts | 194° |
| 2026-05-08 11:20 | 48.44902 | 2.68106 | 22745 ft | 375 kts | 194° |
| 2026-05-08 11:20 | 48.42343 | 2.67265 | 23282 ft | 378 kts | 194° |
| 2026-05-08 11:20 | 48.39760 | 2.66417 | 23771 ft | 381 kts | 194° |
| 2026-05-08 11:21 | 48.37155 | 2.65564 | 24202 ft | 384 kts | 195° |
| 2026-05-08 11:21 | 48.34565 | 2.64719 | 24605 ft | 388 kts | 195° |
| 2026-05-08 11:21 | 48.31905 | 2.63938 | 25006 ft | 393 kts | 190° |
| 2026-05-08 11:21 | 48.29155 | 2.63807 | 25383 ft | 400 kts | 179° |
| 2026-05-08 11:22 | 48.26383 | 2.64488 | 25764 ft | 408 kts | 168° |
| 2026-05-08 11:22 | 48.23699 | 2.65994 | 26134 ft | 416 kts | 157° |
| 2026-05-08 11:22 | 48.21110 | 2.67991 | 26490 ft | 421 kts | 156° |
| 2026-05-08 11:22 | 48.18496 | 2.70008 | 26816 ft | 425 kts | 156° |
| 2026-05-08 11:23 | 48.15848 | 2.72038 | 27007 ft | 431 kts | 156° |
| 2026-05-08 11:23 | 48.13180 | 2.74072 | 27054 ft | 441 kts | 156° |
| 2026-05-08 11:23 | 48.10415 | 2.76174 | 27052 ft | 452 kts | 156° |
| 2026-05-08 11:23 | 48.07573 | 2.78311 | 27047 ft | 461 kts | 158° |
| 2026-05-08 11:24 | 48.04641 | 2.80349 | 27052 ft | 468 kts | 159° |
| 2026-05-08 11:24 | 48.01645 | 2.82275 | 27048 ft | 470 kts | 161° |
| 2026-05-08 11:24 | 47.98705 | 2.84434 | 27049 ft | 474 kts | 152° |
| 2026-05-08 11:24 | 47.95873 | 2.86984 | 27041 ft | 476 kts | 152° |
| 2026-05-08 11:25 | 47.93040 | 2.89548 | 27034 ft | 477 kts | 152° |
| 2026-05-08 11:25 | 47.90240 | 2.92087 | 27050 ft | 477 kts | 152° |
| 2026-05-08 11:25 | 47.87405 | 2.94658 | 27042 ft | 477 kts | 152° |
| 2026-05-08 11:25 | 47.84571 | 2.97227 | 27038 ft | 476 kts | 152° |
| 2026-05-08 11:26 | 47.81752 | 2.99779 | 27035 ft | 473 kts | 152° |
| 2026-05-08 11:26 | 47.78937 | 3.02318 | 27033 ft | 473 kts | 152° |
| 2026-05-08 11:26 | 47.76121 | 3.04846 | 27026 ft | 472 kts | 152° |
| 2026-05-08 11:26 | 47.73309 | 3.07364 | 27016 ft | 473 kts | 152° |
| 2026-05-08 11:27 | 47.70489 | 3.09881 | 27014 ft | 473 kts | 152° |
| 2026-05-08 11:27 | 47.67661 | 3.12397 | 27015 ft | 474 kts | 152° |
| 2026-05-08 11:27 | 47.64871 | 3.14877 | 27009 ft | 474 kts | 152° |
| 2026-05-08 11:27 | 47.62041 | 3.17391 | 27015 ft | 475 kts | 152° |
| 2026-05-08 11:28 | 47.59204 | 3.19915 | 27016 ft | 475 kts | 152° |
| 2026-05-08 11:28 | 47.56374 | 3.22437 | 27006 ft | 475 kts | 152° |
| 2026-05-08 11:28 | 47.53540 | 3.24959 | 27003 ft | 476 kts | 152° |
| 2026-05-08 11:28 | 47.50704 | 3.27486 | 27011 ft | 476 kts | 152° |
| 2026-05-08 11:29 | 47.47864 | 3.30012 | 27009 ft | 476 kts | 152° |
| 2026-05-08 11:29 | 47.45022 | 3.32527 | 27010 ft | 476 kts | 152° |
| 2026-05-08 11:29 | 47.42217 | 3.35006 | 27022 ft | 476 kts | 152° |
| 2026-05-08 11:29 | 47.39376 | 3.37511 | 27029 ft | 475 kts | 152° |
| 2026-05-08 11:30 | 47.36539 | 3.40009 | 27035 ft | 475 kts | 152° |
| 2026-05-08 11:30 | 47.33705 | 3.42504 | 27035 ft | 475 kts | 152° |
| 2026-05-08 11:30 | 47.30870 | 3.45001 | 27014 ft | 475 kts | 152° |
| 2026-05-08 11:30 | 47.28031 | 3.47496 | 27011 ft | 475 kts | 152° |
| 2026-05-08 11:31 | 47.25194 | 3.49982 | 27008 ft | 475 kts | 152° |
| 2026-05-08 11:31 | 47.22358 | 3.52463 | 27007 ft | 475 kts | 152° |
| 2026-05-08 11:31 | 47.19520 | 3.54945 | 27006 ft | 475 kts | 152° |
| 2026-05-08 11:31 | 47.16716 | 3.57393 | 27005 ft | 475 kts | 152° |
| 2026-05-08 11:32 | 47.13874 | 3.59872 | 27003 ft | 475 kts | 152° |
| 2026-05-08 11:32 | 47.11030 | 3.62354 | 26997 ft | 475 kts | 152° |
| 2026-05-08 11:32 | 47.08191 | 3.64832 | 27001 ft | 475 kts | 152° |
| 2026-05-08 11:32 | 47.05346 | 3.67313 | 27001 ft | 475 kts | 152° |
| 2026-05-08 11:33 | 47.02502 | 3.69788 | 27001 ft | 476 kts | 152° |
| 2026-05-08 11:33 | 46.99659 | 3.72256 | 27003 ft | 476 kts | 152° |
| 2026-05-08 11:33 | 46.96808 | 3.74725 | 27000 ft | 476 kts | 152° |
| 2026-05-08 11:33 | 46.93956 | 3.77188 | 27003 ft | 476 kts | 152° |
| 2026-05-08 11:34 | 46.91145 | 3.79614 | 27004 ft | 476 kts | 152° |
| 2026-05-08 11:34 | 46.88293 | 3.82073 | 26991 ft | 476 kts | 152° |
| 2026-05-08 11:34 | 46.85438 | 3.84532 | 26994 ft | 476 kts | 152° |
| 2026-05-08 11:34 | 46.82584 | 3.86990 | 26998 ft | 477 kts | 152° |
| 2026-05-08 11:35 | 46.79724 | 3.89451 | 26998 ft | 477 kts | 152° |
| 2026-05-08 11:35 | 46.76867 | 3.91905 | 27004 ft | 477 kts | 152° |
| 2026-05-08 11:35 | 46.74007 | 3.94358 | 27006 ft | 477 kts | 152° |
| 2026-05-08 11:35 | 46.71142 | 3.96817 | 27009 ft | 477 kts | 152° |
| 2026-05-08 11:36 | 46.68282 | 3.99268 | 27010 ft | 477 kts | 152° |
| 2026-05-08 11:36 | 46.65417 | 4.01717 | 26999 ft | 477 kts | 152° |
| 2026-05-08 11:36 | 46.62589 | 4.04129 | 27000 ft | 477 kts | 152° |
| 2026-05-08 11:36 | 46.59728 | 4.06566 | 27010 ft | 476 kts | 152° |
| 2026-05-08 11:37 | 46.56870 | 4.08997 | 26723 ft | 473 kts | 152° |
| 2026-05-08 11:37 | 46.54045 | 4.11399 | 26462 ft | 469 kts | 152° |
| 2026-05-08 11:37 | 46.51237 | 4.13790 | 26207 ft | 466 kts | 152° |
| 2026-05-08 11:37 | 46.48469 | 4.16144 | 25944 ft | 455 kts | 152° |
| 2026-05-08 11:38 | 46.45781 | 4.18431 | 25703 ft | 440 kts | 152° |
| 2026-05-08 11:38 | 46.43191 | 4.20630 | 25564 ft | 424 kts | 153° |
| 2026-05-08 11:38 | 46.40677 | 4.22759 | 25282 ft | 414 kts | 153° |
| 2026-05-08 11:38 | 46.38236 | 4.24817 | 24881 ft | 408 kts | 153° |
| 2026-05-08 11:39 | 46.35797 | 4.26866 | 24455 ft | 403 kts | 153° |
| 2026-05-08 11:39 | 46.33389 | 4.28890 | 24028 ft | 398 kts | 153° |
| 2026-05-08 11:39 | 46.31006 | 4.30893 | 23617 ft | 394 kts | 153° |
| 2026-05-08 11:39 | 46.28650 | 4.32869 | 23131 ft | 390 kts | 153° |
| 2026-05-08 11:40 | 46.26315 | 4.34829 | 22603 ft | 387 kts | 153° |
| 2026-05-08 11:40 | 46.23993 | 4.36779 | 22104 ft | 384 kts | 153° |
| 2026-05-08 11:40 | 46.21689 | 4.38711 | 21635 ft | 381 kts | 153° |
| 2026-05-08 11:40 | 46.19383 | 4.40642 | 20663 ft | 389 kts | 153° |
| 2026-05-08 11:41 | 46.17044 | 4.42593 | 19910 ft | 394 kts | 153° |
| 2026-05-08 11:41 | 46.14677 | 4.44571 | 19361 ft | 393 kts | 153° |
| 2026-05-08 11:41 | 46.12318 | 4.46544 | 18673 ft | 394 kts | 153° |
| 2026-05-08 11:41 | 46.09908 | 4.48554 | 17668 ft | 404 kts | 152° |
| 2026-05-08 11:42 | 46.07494 | 4.50625 | 16949 ft | 404 kts | 150° |
| 2026-05-08 11:42 | 46.05128 | 4.52790 | 16339 ft | 402 kts | 149° |
| 2026-05-08 11:42 | 46.02806 | 4.55002 | 15767 ft | 399 kts | 148° |
| 2026-05-08 11:42 | 46.00508 | 4.57226 | 15193 ft | 396 kts | 147° |
| 2026-05-08 11:43 | 45.98233 | 4.59418 | 14648 ft | 393 kts | 148° |
| 2026-05-08 11:43 | 45.95965 | 4.61576 | 14092 ft | 390 kts | 148° |
| 2026-05-08 11:43 | 45.93733 | 4.63677 | 13522 ft | 386 kts | 148° |
| 2026-05-08 11:43 | 45.91493 | 4.65771 | 12915 ft | 383 kts | 148° |
| 2026-05-08 11:44 | 45.89271 | 4.67840 | 12318 ft | 379 kts | 148° |
| 2026-05-08 11:44 | 45.87074 | 4.69883 | 11711 ft | 375 kts | 148° |
| 2026-05-08 11:44 | 45.84908 | 4.71902 | 11357 ft | 364 kts | 148° |
| 2026-05-08 11:44 | 45.82833 | 4.73838 | 11221 ft | 348 kts | 148° |
| 2026-05-08 11:45 | 45.80845 | 4.75693 | 11098 ft | 333 kts | 148° |
| 2026-05-08 11:45 | 45.78939 | 4.77461 | 10963 ft | 320 kts | 149° |
| 2026-05-08 11:45 | 45.77108 | 4.79149 | 10851 ft | 307 kts | 148° |
| 2026-05-08 11:45 | 45.75368 | 4.80759 | 10722 ft | 296 kts | 149° |
| 2026-05-08 11:46 | 45.73650 | 4.82347 | 10394 ft | 293 kts | 149° |
| 2026-05-08 11:46 | 45.71936 | 4.83922 | 10015 ft | 293 kts | 149° |
| 2026-05-08 11:46 | 45.70229 | 4.85484 | 9591 ft | 289 kts | 149° |
| 2026-05-08 11:46 | 45.68557 | 4.86997 | 8754 ft | 281 kts | 149° |
| 2026-05-08 11:47 | 45.66924 | 4.88462 | 7892 ft | 273 kts | 150° |
| 2026-05-08 11:47 | 45.65333 | 4.89876 | 7104 ft | 267 kts | 150° |
| 2026-05-08 11:47 | 45.63750 | 4.91247 | 6497 ft | 264 kts | 151° |
| 2026-05-08 11:47 | 45.62175 | 4.92561 | 5893 ft | 261 kts | 152° |
| 2026-05-08 11:48 | 45.60610 | 4.93815 | 5360 ft | 255 kts | 152° |
| 2026-05-08 11:48 | 45.59211 | 4.95229 | 4960 ft | 246 kts | 139° |
| 2026-05-08 11:48 | 45.58080 | 4.96997 | 4618 ft | 239 kts | 130° |
| 2026-05-08 11:48 | 45.57110 | 4.98880 | 4394 ft | 232 kts | 128° |
| 2026-05-08 11:49 | 45.56205 | 5.00750 | 4239 ft | 225 kts | 122° |
| 2026-05-08 11:49 | 45.55667 | 5.02814 | 4047 ft | 221 kts | 100° |
| 2026-05-08 11:49 | 45.55760 | 5.04978 | 3832 ft | 220 kts | 72° |
| 2026-05-08 11:49 | 45.56507 | 5.06823 | 3700 ft | 213 kts | 48° |
| 2026-05-08 11:50 | 45.57628 | 5.08166 | 3468 ft | 208 kts | 35° |
| 2026-05-08 11:50 | 45.58796 | 5.09289 | 3276 ft | 199 kts | 32° |
| 2026-05-08 11:50 | 45.60004 | 5.10063 | 3122 ft | 189 kts | 11° |
| 2026-05-08 11:50 | 45.61312 | 5.10204 | 2789 ft | 190 kts | 358° |
| 2026-05-08 11:51 | 45.62592 | 5.10054 | 2534 ft | 179 kts | 352° |
| 2026-05-08 11:51 | 45.63807 | 5.09901 | 2282 ft | 170 kts | 355° |
| 2026-05-08 11:51 | 45.64917 | 5.09777 | 2124 ft | 154 kts | 356° |
| 2026-05-08 11:51 | 45.65957 | 5.09668 | 1873 ft | 148 kts | 354° |
| 2026-05-08 11:52 | 45.66969 | 5.09527 | 1679 ft | 143 kts | 354° |
| 2026-05-08 11:52 | 45.67954 | 5.09417 | 1468 ft | 141 kts | 355° |
| 2026-05-08 11:52 | 45.68925 | 5.09283 | 1301 ft | 140 kts | 355° |
| 2026-05-08 11:52 | 45.69884 | 5.09168 | 1096 ft | 140 kts | 355° |
| 2026-05-08 11:53 | 45.70858 | 5.09053 | 896 ft | 140 kts | 355° |
| 2026-05-08 11:53 | 45.71788 | 5.08943 | 809 ft | 116 kts | 355° |
| 2026-05-08 11:53 | 45.72283 | 5.08885 | 803 ft | 30 kts | 354° |
| 2026-05-08 11:53 | 45.72364 | 5.08824 | 801 ft | 11 kts | 302° |
| 2026-05-08 11:54 | 45.72394 | 5.08691 | 802 ft | 15 kts | 284° |
| 2026-05-08 11:54 | 45.72419 | 5.08550 | 802 ft | 15 kts | 284° |
| 2026-05-08 11:54 | 45.72431 | 5.08434 | 802 ft | 9 kts | 250° |
| 2026-05-08 11:54 | 45.72375 | 5.08408 | 802 ft | 11 kts | 174° |
| 2026-05-08 11:55 | 45.72258 | 5.08422 | 802 ft | 20 kts | 176° |
| 2026-05-08 11:55 | 45.72110 | 5.08441 | 802 ft | 23 kts | 175° |
| 2026-05-08 11:55 | 45.71965 | 5.08457 | 803 ft | 10 kts | 185° |
| 2026-05-08 11:55 | 45.71955 | 5.08366 | 802 ft | 12 kts | 285° |
| 2026-05-08 11:56 | 45.71962 | 5.08239 | 802 ft | 14 kts | 225° |
| 2026-05-08 11:56 | 45.71858 | 5.08188 | 802 ft | 18 kts | 196° |
| 2026-05-08 11:56 | 45.71739 | 5.08106 | 802 ft | 16 kts | 215° |
| 2026-05-08 11:56 | 45.71639 | 5.08056 | 802 ft | 10 kts | 195° |
| 2026-05-08 11:57 | 45.71616 | 5.08002 | 802 ft | 8 kts | 277° |
| 2026-05-08 11:57 | 45.71627 | 5.07912 | 802 ft | 9 kts | 279° |
| 2026-05-08 11:57 | 45.71630 | 5.07881 | 802 ft | 0 kts | 278° |